Time;durP1;ratioP1;P1;durP2;ratioP2;P2;SDS_P1;SDS_P2;PMS_P1;PMS_P2;Temp;Humidity;BMP_temperature;BMP_pressure;BME280_temperature;BME280_humidity;BME280_pressure;Samples;Min_cycle;Max_cycle;Signal;HPM_P1;HPM_P2
2023/09/07 00:01:06;;;;;;;14.43;9.63;;;19.80;99.90;;;;;;5034031;28;20238;-58
2023/09/07 00:03:32;;;;;;;11.27;9.23;;;19.80;99.90;;;;;;5037591;28;20204;-57
2023/09/07 00:05:57;;;;;;;15.10;9.53;;;19.80;99.90;;;;;;5034678;28;20215;-57
2023/09/07 00:08:25;;;;;;;12.57;8.90;;;19.80;99.90;;;;;;5038974;28;20684;-57
2023/09/07 00:10:50;;;;;;;12.37;8.83;;;19.70;99.90;;;;;;5021688;28;20260;-58
2023/09/07 00:13:16;;;;;;;12.40;8.00;;;19.60;99.90;;;;;;5034655;28;21024;-57
2023/09/07 00:15:43;;;;;;;11.63;8.70;;;19.60;99.90;;;;;;5037482;28;20202;-57
2023/09/07 00:18:08;;;;;;;8.13;7.30;;;19.60;99.90;;;;;;5019415;28;20929;-58
2023/09/07 00:20:34;;;;;;;8.80;7.90;;;19.50;99.90;;;;;;5037399;28;20260;-57
2023/09/07 00:23:00;;;;;;;8.83;7.90;;;19.50;99.90;;;;;;5035189;28;20213;-57
2023/09/07 00:25:26;;;;;;;8.27;7.47;;;19.40;99.90;;;;;;5034235;28;20222;-57
2023/09/07 00:27:51;;;;;;;9.20;7.87;;;19.50;99.90;;;;;;5031572;28;20242;-58
2023/09/07 00:30:17;;;;;;;8.63;7.27;;;19.40;99.90;;;;;;5036884;28;20648;-57
2023/09/07 00:32:42;;;;;;;9.40;8.40;;;19.40;99.90;;;;;;5035227;28;20195;-57
2023/09/07 00:35:08;;;;;;;10.80;8.43;;;19.30;99.90;;;;;;5029731;28;20209;-63
2023/09/07 00:37:34;;;;;;;10.00;8.93;;;19.30;99.90;;;;;;5040293;28;20268;-59
2023/09/07 00:39:59;;;;;;;10.47;8.13;;;19.30;99.90;;;;;;5037965;28;20244;-60
2023/09/07 00:42:25;;;;;;;11.43;9.50;;;19.30;99.90;;;;;;5036952;28;20569;-57
2023/09/07 00:44:50;;;;;;;13.90;9.53;;;19.20;99.90;;;;;;5034028;28;20312;-57
2023/09/07 00:47:16;;;;;;;9.43;8.53;;;19.20;99.90;;;;;;5040843;28;20226;-58
2023/09/07 00:49:42;;;;;;;10.80;9.70;;;19.20;99.90;;;;;;5034910;28;20685;-57
2023/09/07 00:52:09;;;;;;;9.80;8.70;;;19.20;99.90;;;;;;5034031;28;20214;-58
2023/09/07 00:54:38;;;;;;;9.93;8.80;;;19.20;99.90;;;;;;5036411;28;20683;-57
2023/09/07 00:57:04;;;;;;;11.17;8.87;;;19.30;99.90;;;;;;5036184;28;20292;-56
2023/09/07 00:59:30;;;;;;;7.40;6.70;;;19.30;99.90;;;;;;5036170;28;20210;-57
2023/09/07 01:01:55;;;;;;;8.87;7.90;;;19.20;99.90;;;;;;5034247;28;20244;-57
2023/09/07 01:04:20;;;;;;;7.90;7.13;;;19.10;99.90;;;;;;5034616;28;20201;-57
2023/09/07 01:06:55;;;;;;;9.43;8.23;;;19.00;99.90;;;;;;5035892;28;20233;-57
2023/09/07 01:09:25;;;;;;;7.80;7.10;;;19.00;99.90;;;;;;5032012;28;20209;-57
2023/09/07 01:11:50;;;;;;;8.10;7.40;;;18.90;99.90;;;;;;5034100;28;20194;-58
2023/09/07 01:14:17;;;;;;;9.63;7.63;;;18.90;99.90;;;;;;5039348;28;20209;-57
2023/09/07 01:16:42;;;;;;;8.83;7.53;;;18.80;99.90;;;;;;5037322;28;20201;-58
2023/09/07 01:19:09;;;;;;;7.83;7.13;;;18.80;99.90;;;;;;5038110;28;20214;-58
2023/09/07 01:21:36;;;;;;;9.50;7.50;;;18.80;99.90;;;;;;5034403;28;20222;-58
2023/09/07 01:24:10;;;;;;;8.07;7.27;;;18.80;99.90;;;;;;5032392;28;20233;-57
2023/09/07 01:26:38;;;;;;;8.20;6.63;;;18.80;99.90;;;;;;5034950;28;20204;-58
2023/09/07 01:29:08;;;;;;;10.17;7.80;;;18.80;99.90;;;;;;5036852;28;20198;-58
2023/09/07 01:31:37;;;;;;;7.33;6.50;;;18.80;99.90;;;;;;5030969;28;20202;-58
2023/09/07 01:34:04;;;;;;;9.67;8.27;;;18.80;99.90;;;;;;5037069;28;20284;-58
2023/09/07 01:36:29;;;;;;;13.63;7.13;;;18.70;99.90;;;;;;5028887;28;20201;-58
2023/09/07 01:38:55;;;;;;;8.40;7.47;;;18.70;99.90;;;;;;5034409;28;20264;-58
2023/09/07 01:41:20;;;;;;;7.73;7.03;;;18.60;99.90;;;;;;5028808;28;20695;-63
2023/09/07 01:43:46;;;;;;;7.57;6.87;;;18.50;99.90;;;;;;5029464;28;20193;-57
2023/09/07 01:46:12;;;;;;;7.73;6.87;;;18.50;99.90;;;;;;5032131;28;20800;-58
2023/09/07 01:48:37;;;;;;;7.27;6.57;;;18.50;99.90;;;;;;5029219;28;20307;-58
2023/09/07 01:51:03;;;;;;;7.97;7.13;;;18.50;99.90;;;;;;5033391;28;20217;-57
2023/09/07 01:53:28;;;;;;;8.00;7.27;;;18.50;99.90;;;;;;5038042;28;20215;-58
2023/09/07 01:55:55;;;;;;;7.47;6.73;;;18.40;99.90;;;;;;5035863;28;20244;-58
2023/09/07 01:58:21;;;;;;;7.13;6.43;;;18.40;99.90;;;;;;5035326;28;20283;-58
2023/09/07 02:00:46;;;;;;;7.73;6.93;;;18.40;99.90;;;;;;5026902;28;20216;-57
2023/09/07 02:03:12;;;;;;;7.87;6.17;;;18.40;99.90;;;;;;5035871;28;20198;-57
2023/09/07 02:05:38;;;;;;;7.00;6.37;;;18.40;99.90;;;;;;5037732;28;20563;-57
2023/09/07 02:08:04;;;;;;;7.23;6.53;;;18.40;99.90;;;;;;5044756;28;20196;-57
2023/09/07 02:10:30;;;;;;;9.33;6.70;;;18.40;99.90;;;;;;5039718;28;20260;-57
2023/09/07 02:12:57;;;;;;;7.47;6.70;;;18.40;99.90;;;;;;5042242;28;20197;-69
2023/09/07 02:15:23;;;;;;;8.30;6.57;;;18.40;99.90;;;;;;5041551;28;20197;-60
2023/09/07 02:17:49;;;;;;;8.87;6.73;;;18.30;99.90;;;;;;5044044;28;20683;-65
2023/09/07 02:20:15;;;;;;;8.40;6.67;;;18.30;99.90;;;;;;5036816;28;20228;-58
2023/09/07 02:22:40;;;;;;;8.00;6.87;;;18.30;99.90;;;;;;5036709;28;20246;-57
2023/09/07 02:25:06;;;;;;;8.30;6.93;;;18.30;99.90;;;;;;5038241;28;20268;-57
2023/09/07 02:27:35;;;;;;;8.60;6.53;;;18.20;99.90;;;;;;5031850;28;20208;-57
2023/09/07 02:30:02;;;;;;;7.17;6.57;;;18.20;99.90;;;;;;5043480;28;20937;-57
2023/09/07 02:32:28;;;;;;;7.23;6.50;;;18.10;99.90;;;;;;5044280;28;20616;-57
2023/09/07 02:34:53;;;;;;;9.23;7.10;;;18.20;99.90;;;;;;5040804;28;20684;-57
2023/09/07 02:37:19;;;;;;;8.00;6.53;;;18.20;99.90;;;;;;5034856;28;20196;-58
2023/09/07 02:39:44;;;;;;;7.27;6.53;;;18.20;99.90;;;;;;5039260;28;20250;-58
2023/09/07 02:42:10;;;;;;;7.17;6.47;;;18.20;99.90;;;;;;5036201;28;20321;-58
2023/09/07 02:44:35;;;;;;;7.20;6.40;;;18.10;99.90;;;;;;5038982;28;20714;-58
2023/09/07 02:47:01;;;;;;;7.17;6.37;;;18.10;99.90;;;;;;5039258;28;20229;-58
2023/09/07 02:49:27;;;;;;;7.20;6.60;;;18.00;99.90;;;;;;5034567;28;20213;-57
2023/09/07 02:51:52;;;;;;;11.17;7.47;;;18.00;99.90;;;;;;5046395;28;20584;-57
2023/09/07 02:54:18;;;;;;;7.43;6.67;;;18.00;99.90;;;;;;5043053;28;20194;-56
2023/09/07 02:56:43;;;;;;;7.47;6.77;;;17.90;99.90;;;;;;5036534;28;20202;-57
2023/09/07 02:59:09;;;;;;;6.90;6.23;;;17.90;99.90;;;;;;5041603;28;20225;-57
2023/09/07 03:01:34;;;;;;;10.07;7.23;;;17.90;99.90;;;;;;5036729;28;20213;-57
2023/09/07 03:04:00;;;;;;;7.87;7.20;;;17.90;99.90;;;;;;5038511;28;20216;-57
2023/09/07 03:06:25;;;;;;;7.43;6.70;;;17.90;99.90;;;;;;5033636;28;20277;-57
2023/09/07 03:08:52;;;;;;;8.47;7.63;;;17.80;99.90;;;;;;5034063;28;20206;-57
2023/09/07 03:11:17;;;;;;;7.13;6.53;;;17.80;99.90;;;;;;5022673;28;20209;-56
2023/09/07 03:13:43;;;;;;;9.30;7.43;;;17.80;99.90;;;;;;5037378;28;20513;-57
2023/09/07 03:16:09;;;;;;;7.53;6.93;;;17.80;99.90;;;;;;5035472;28;20228;-57
2023/09/07 03:18:34;;;;;;;7.10;6.43;;;17.80;99.90;;;;;;5036920;28;20200;-57
2023/09/07 03:21:02;;;;;;;7.10;6.37;;;17.70;99.90;;;;;;5038986;28;20527;-56
2023/09/07 03:23:32;;;;;;;10.17;6.90;;;17.80;99.90;;;;;;5038739;28;20288;-56
2023/09/07 03:25:58;;;;;;;10.80;6.83;;;17.80;99.90;;;;;;5043202;28;20208;-56
2023/09/07 03:28:27;;;;;;;7.47;6.77;;;17.80;99.90;;;;;;5034915;28;20209;-56
2023/09/07 03:30:54;;;;;;;7.50;6.47;;;17.70;99.90;;;;;;5040414;28;20213;-56
2023/09/07 03:33:20;;;;;;;8.53;7.07;;;17.70;99.90;;;;;;5034451;28;20219;-56
2023/09/07 03:35:45;;;;;;;8.00;7.20;;;17.70;99.90;;;;;;5039289;28;20205;-57
2023/09/07 03:38:11;;;;;;;7.90;7.27;;;17.70;99.90;;;;;;5021844;28;21093;-56
2023/09/07 03:40:36;;;;;;;7.27;6.67;;;17.70;99.90;;;;;;5038688;28;20212;-56
2023/09/07 03:43:02;;;;;;;7.13;6.57;;;17.70;99.90;;;;;;5037520;28;20210;-56
2023/09/07 03:45:27;;;;;;;7.70;6.90;;;17.70;99.90;;;;;;5039567;28;20278;-56
2023/09/07 03:47:53;;;;;;;8.60;7.80;;;17.60;99.90;;;;;;5041310;28;20236;-58
2023/09/07 03:50:18;;;;;;;9.47;7.57;;;17.60;99.90;;;;;;5037061;28;20225;-57
2023/09/07 03:52:44;;;;;;;8.37;6.83;;;17.60;99.90;;;;;;5036837;28;20752;-56
2023/09/07 03:55:09;;;;;;;8.23;7.43;;;17.50;99.90;;;;;;5039468;28;20231;-57
2023/09/07 03:57:35;;;;;;;11.47;7.40;;;17.50;99.90;;;;;;5020263;28;20186;-56
2023/09/07 04:00:00;;;;;;;8.63;7.23;;;17.50;99.90;;;;;;5036657;28;20273;-57
2023/09/07 04:02:26;;;;;;;7.87;7.10;;;17.50;99.90;;;;;;5038767;28;20217;-56
2023/09/07 04:04:53;;;;;;;9.33;8.33;;;17.50;99.90;;;;;;5033761;28;20200;-56
2023/09/07 04:07:19;;;;;;;14.47;8.53;;;17.50;99.90;;;;;;5037599;28;20382;-56
2023/09/07 04:09:45;;;;;;;10.20;7.83;;;17.40;99.90;;;;;;5035267;28;20201;-56
2023/09/07 04:12:11;;;;;;;8.77;7.93;;;17.50;99.90;;;;;;5036497;28;20204;-56
2023/09/07 04:14:37;;;;;;;8.23;7.43;;;17.40;99.90;;;;;;5030664;28;20210;-57
2023/09/07 04:17:03;;;;;;;8.80;6.70;;;17.40;99.90;;;;;;5036718;28;20259;-57
2023/09/07 04:19:28;;;;;;;9.10;7.40;;;17.50;99.90;;;;;;5039176;28;20193;-57
2023/09/07 04:21:54;;;;;;;8.43;7.73;;;17.50;99.90;;;;;;5042664;28;20299;-57
2023/09/07 04:24:19;;;;;;;7.37;6.73;;;17.40;99.90;;;;;;5037384;28;20208;-57
2023/09/07 04:26:45;;;;;;;7.57;6.97;;;17.40;99.90;;;;;;5042326;28;20228;-56
2023/09/07 04:29:12;;;;;;;11.40;7.87;;;17.30;99.90;;;;;;5036302;28;20566;-57
2023/09/07 04:31:38;;;;;;;8.57;7.67;;;17.30;99.90;;;;;;5037408;28;20251;-57
2023/09/07 04:34:04;;;;;;;13.87;7.47;;;17.30;99.90;;;;;;5038544;28;20195;-56
2023/09/07 04:36:30;;;;;;;7.73;6.90;;;17.30;99.90;;;;;;5030729;28;20212;-56
2023/09/07 04:38:55;;;;;;;9.83;6.77;;;17.20;99.90;;;;;;5040269;28;20208;-63
2023/09/07 04:41:21;;;;;;;8.17;7.47;;;17.20;99.90;;;;;;5036508;28;20847;-60
2023/09/07 04:43:46;;;;;;;9.40;7.20;;;17.20;99.90;;;;;;5036493;28;20191;-57
2023/09/07 04:46:13;;;;;;;7.73;7.00;;;17.20;99.90;;;;;;5036237;28;20224;-57
2023/09/07 04:48:41;;;;;;;8.33;7.53;;;17.10;99.90;;;;;;5038576;28;20711;-59
2023/09/07 04:51:08;;;;;;;8.13;7.33;;;17.20;99.90;;;;;;5034208;28;20235;-56
2023/09/07 04:53:35;;;;;;;8.37;7.50;;;17.20;99.90;;;;;;5036070;28;20195;-56
2023/09/07 04:56:01;;;;;;;10.07;8.80;;;17.20;99.90;;;;;;5036693;28;20204;-56
2023/09/07 04:58:27;;;;;;;8.63;7.77;;;17.20;99.90;;;;;;5036754;28;20204;-56
2023/09/07 05:00:53;;;;;;;10.97;7.67;;;17.10;99.90;;;;;;5040364;28;20232;-56
2023/09/07 05:03:18;;;;;;;12.13;7.97;;;17.10;99.90;;;;;;5038825;28;20196;-57
2023/09/07 05:05:45;;;;;;;10.77;8.03;;;17.10;99.90;;;;;;5033418;28;20191;-56
2023/09/07 05:08:10;;;;;;;9.90;7.93;;;17.10;99.90;;;;;;5030331;28;20199;-57
2023/09/07 05:10:37;;;;;;;10.37;8.97;;;17.10;99.90;;;;;;5036846;28;20194;-58
2023/09/07 05:13:03;;;;;;;9.33;8.40;;;17.10;99.90;;;;;;5018226;28;20399;-58
2023/09/07 05:15:29;;;;;;;9.60;8.60;;;17.10;99.90;;;;;;5036650;28;21042;-58
2023/09/07 05:17:55;;;;;;;9.50;8.57;;;17.10;99.90;;;;;;5021711;28;20207;-57
2023/09/07 05:20:21;;;;;;;10.97;9.47;;;17.10;99.90;;;;;;5033190;28;20228;-56
2023/09/07 05:22:47;;;;;;;10.60;9.07;;;17.20;99.90;;;;;;5043244;28;20211;-57
2023/09/07 05:25:12;;;;;;;12.13;8.70;;;17.20;99.90;;;;;;5035139;28;20213;-56
2023/09/07 05:27:38;;;;;;;16.03;9.33;;;17.20;99.90;;;;;;5036087;28;20570;-57
2023/09/07 05:30:05;;;;;;;13.77;10.20;;;17.30;99.90;;;;;;5038551;28;20284;-58
2023/09/07 05:32:30;;;;;;;16.20;10.63;;;17.30;99.90;;;;;;5035916;28;20888;-57
2023/09/07 05:34:56;;;;;;;15.43;10.43;;;17.40;99.90;;;;;;5036792;28;20201;-58
2023/09/07 05:37:21;;;;;;;16.40;10.30;;;17.40;99.90;;;;;;5035711;28;20206;-58
2023/09/07 05:39:48;;;;;;;16.27;9.83;;;17.50;99.90;;;;;;5015704;28;20225;-58
2023/09/07 05:42:14;;;;;;;12.37;9.70;;;17.40;99.90;;;;;;5032186;28;20566;-59
2023/09/07 05:44:40;;;;;;;17.07;9.90;;;17.40;99.90;;;;;;5027411;28;20212;-58
2023/09/07 05:47:05;;;;;;;13.97;9.73;;;17.50;99.90;;;;;;5034258;28;20304;-60
2023/09/07 05:49:31;;;;;;;18.03;11.17;;;17.50;99.90;;;;;;5036149;28;20214;-58
2023/09/07 05:51:56;;;;;;;9.53;8.50;;;17.50;99.90;;;;;;5035839;28;20266;-59
2023/09/07 05:54:22;;;;;;;12.37;8.63;;;17.50;99.90;;;;;;5041367;28;20197;-59
2023/09/07 05:56:47;;;;;;;16.83;9.23;;;17.60;99.90;;;;;;5038902;28;20205;-58
2023/09/07 05:59:13;;;;;;;9.67;7.67;;;17.60;99.90;;;;;;5032608;28;22956;-59
2023/09/07 06:01:40;;;;;;;11.03;7.27;;;17.70;99.90;;;;;;5029592;28;20209;-56
2023/09/07 06:04:06;;;;;;;9.27;7.40;;;17.70;99.90;;;;;;5035414;28;20201;-59
2023/09/07 06:06:31;;;;;;;10.40;7.53;;;17.70;99.90;;;;;;5033523;28;20192;-64
2023/09/07 06:08:58;;;;;;;9.93;7.70;;;17.80;99.90;;;;;;5030143;28;20207;-56
2023/09/07 06:11:25;;;;;;;14.67;7.47;;;17.90;99.90;;;;;;5036852;28;20535;-57
2023/09/07 06:13:50;;;;;;;11.17;7.10;;;17.90;99.90;;;;;;5030546;28;21049;-56
2023/09/07 06:16:16;;;;;;;8.57;7.47;;;18.00;99.90;;;;;;5032275;28;20197;-60
2023/09/07 06:18:42;;;;;;;11.23;7.40;;;18.10;99.90;;;;;;5033044;28;20194;-60
2023/09/07 06:21:07;;;;;;;7.57;6.80;;;18.20;99.90;;;;;;5014299;28;20293;-59
2023/09/07 06:23:32;;;;;;;9.57;6.87;;;18.30;99.90;;;;;;5033917;28;20202;-59
2023/09/07 06:25:58;;;;;;;9.30;7.03;;;18.30;99.90;;;;;;5035755;28;20778;-56
2023/09/07 06:28:23;;;;;;;11.73;8.03;;;18.40;99.90;;;;;;5039362;28;20523;-57
2023/09/07 06:30:49;;;;;;;9.83;6.27;;;18.50;99.90;;;;;;5035373;28;20217;-59
2023/09/07 06:33:14;;;;;;;10.87;7.10;;;18.60;99.90;;;;;;5032458;28;20683;-56
2023/09/07 06:35:40;;;;;;;10.43;6.57;;;18.70;99.90;;;;;;5035941;28;20667;-58
2023/09/07 06:38:05;;;;;;;12.83;8.13;;;18.80;99.90;;;;;;5033163;28;21021;-58
2023/09/07 06:40:31;;;;;;;9.07;7.10;;;18.90;99.90;;;;;;5031150;28;20225;-58
2023/09/07 06:42:57;;;;;;;7.80;6.93;;;18.90;99.90;;;;;;5032178;28;20218;-59
2023/09/07 06:45:23;;;;;;;7.83;6.33;;;19.20;99.90;;;;;;5011898;28;20232;-58
2023/09/07 06:47:50;;;;;;;11.33;7.03;;;19.30;99.90;;;;;;5039987;28;20429;-55
2023/09/07 06:50:16;;;;;;;8.87;6.93;;;19.60;99.90;;;;;;5032146;28;20191;-60
2023/09/07 06:52:41;;;;;;;13.87;6.57;;;19.60;99.90;;;;;;5041464;28;20698;-58
2023/09/07 06:55:07;;;;;;;13.33;6.33;;;19.70;99.90;;;;;;5037203;28;20202;-58
2023/09/07 06:57:33;;;;;;;8.10;6.30;;;19.80;99.90;;;;;;5039289;28;20266;-62
2023/09/07 06:59:59;;;;;;;8.00;6.77;;;20.10;99.90;;;;;;5039144;28;20199;-62
2023/09/07 07:02:25;;;;;;;13.23;5.77;;;20.30;99.90;;;;;;5035394;28;20275;-55
2023/09/07 07:04:50;;;;;;;7.70;5.73;;;20.50;99.90;;;;;;5032857;28;20271;-59
2023/09/07 07:07:16;;;;;;;8.10;6.43;;;20.70;99.90;;;;;;5037852;28;20243;-61
2023/09/07 07:09:42;;;;;;;9.10;6.67;;;20.90;99.90;;;;;;5036530;28;20207;-59
2023/09/07 07:12:07;;;;;;;9.50;6.13;;;21.00;99.90;;;;;;5042207;28;20206;-60
2023/09/07 07:14:33;;;;;;;7.00;6.10;;;21.10;99.90;;;;;;5034632;28;20206;-63
2023/09/07 07:16:58;;;;;;;8.27;6.83;;;21.30;99.90;;;;;;5042467;28;20324;-55
2023/09/07 07:19:24;;;;;;;8.30;6.53;;;21.40;99.90;;;;;;5035433;28;20199;-55
2023/09/07 07:21:50;;;;;;;7.07;5.50;;;21.40;99.90;;;;;;5036603;28;20705;-55
2023/09/07 07:24:15;;;;;;;5.70;5.20;;;21.40;99.90;;;;;;5041348;28;20194;-55
2023/09/07 07:26:41;;;;;;;6.97;5.33;;;21.40;99.90;;;;;;5039924;28;20202;-60
2023/09/07 07:29:06;;;;;;;8.03;5.47;;;21.50;99.90;;;;;;5037763;28;20207;-58
2023/09/07 07:31:32;;;;;;;9.07;5.70;;;21.50;99.90;;;;;;5036618;28;20781;-58
2023/09/07 07:33:58;;;;;;;8.87;5.03;;;21.50;99.90;;;;;;5041493;28;20203;-58
2023/09/07 07:36:23;;;;;;;8.73;6.20;;;21.50;99.90;;;;;;5037790;28;20209;-58
2023/09/07 07:38:49;;;;;;;7.13;5.30;;;21.70;99.90;;;;;;5038280;28;20214;-58
2023/09/07 07:41:15;;;;;;;10.80;6.07;;;21.80;99.90;;;;;;5037429;28;20210;-58
2023/09/07 07:43:40;;;;;;;12.27;4.93;;;21.90;99.90;;;;;;5041702;28;20744;-61
2023/09/07 07:46:08;;;;;;;8.57;5.90;;;22.00;99.90;;;;;;5019477;28;20198;-63
2023/09/07 07:48:35;;;;;;;12.48;6.25;;;22.00;99.90;;;;;;5040428;28;20797;-64
2023/09/07 07:51:03;;;;;;;8.45;5.65;;;22.00;99.90;;;;;;5033157;28;20293;-66
2023/09/07 07:53:28;;;;;;;8.52;5.30;;;22.10;99.90;;;;;;5014349;28;20206;-62
2023/09/07 07:55:55;;;;;;;7.17;5.80;;;22.20;99.90;;;;;;5038175;28;20198;-64
2023/09/07 07:58:21;;;;;;;8.38;5.82;;;22.20;99.90;;;;;;5034492;28;20195;-64
2023/09/07 08:00:48;;;;;;;7.80;5.68;;;22.30;99.90;;;;;;5039497;28;20219;-62
2023/09/07 08:03:13;;;;;;;6.43;5.32;;;22.40;99.90;;;;;;5043320;28;20199;-57
2023/09/07 08:05:39;;;;;;;5.43;4.83;;;22.40;99.90;;;;;;5031484;28;20210;-56
2023/09/07 08:08:05;;;;;;;8.48;5.55;;;22.40;99.90;;;;;;5033782;28;20587;-56
2023/09/07 08:10:37;;;;;;;6.30;4.72;;;22.40;99.90;;;;;;5033092;28;20295;-55
2023/09/07 08:13:03;;;;;;;11.90;5.72;;;22.60;99.90;;;;;;5035029;28;20198;-55
2023/09/07 08:15:29;;;;;;;8.18;5.68;;;22.60;99.90;;;;;;5031434;28;20255;-57
2023/09/07 08:17:56;;;;;;;6.68;5.75;;;22.60;99.90;;;;;;5038047;28;20210;-54
2023/09/07 08:20:21;;;;;;;11.35;5.35;;;22.70;99.90;;;;;;5036921;28;20421;-53
2023/09/07 08:22:47;;;;;;;5.55;5.05;;;22.70;99.90;;;;;;5036338;28;20746;-56
2023/09/07 08:25:13;;;;;;;9.07;6.18;;;22.70;99.90;;;;;;5037538;28;20202;-55
2023/09/07 08:27:44;;;;;;;5.77;4.93;;;22.80;99.90;;;;;;5037266;28;20190;-64
2023/09/07 08:30:17;;;;;;;7.82;5.05;;;22.80;99.90;;;;;;5036892;28;20195;-62
2023/09/07 08:32:43;;;;;;;7.23;5.53;;;22.90;99.90;;;;;;5038173;28;20278;-67
2023/09/07 08:35:12;;;;;;;6.30;5.37;;;22.90;99.90;;;;;;5014616;28;20194;-61
2023/09/07 08:37:38;;;;;;;6.55;4.88;;;23.00;99.90;;;;;;5039551;28;20229;-64
2023/09/07 08:40:07;;;;;;;5.40;4.90;;;23.10;99.90;;;;;;5041045;28;21003;-61
2023/09/07 08:42:32;;;;;;;7.18;5.30;;;23.10;99.90;;;;;;5040819;28;20731;-63
2023/09/07 08:45:02;;;;;;;5.80;5.30;;;23.20;99.90;;;;;;5040326;28;20194;-58
2023/09/07 08:47:31;;;;;;;4.93;4.53;;;23.10;99.90;;;;;;5033868;28;20310;-59
2023/09/07 08:49:57;;;;;;;7.95;5.00;;;23.20;99.90;;;;;;5040789;28;20214;-58
2023/09/07 08:52:23;;;;;;;7.95;5.30;;;23.20;99.90;;;;;;5033155;28;20200;-58
2023/09/07 08:54:49;;;;;;;6.00;4.55;;;23.40;99.90;;;;;;5016746;28;20235;-56
2023/09/07 08:57:17;;;;;;;12.48;6.70;;;23.70;98.60;;;;;;5034790;28;20625;-53
2023/09/07 08:59:43;;;;;;;5.75;5.15;;;23.80;99.90;;;;;;5029679;28;20290;-55
2023/09/07 09:02:10;;;;;;;6.45;5.03;;;23.80;98.90;;;;;;5016420;28;20548;-56
2023/09/07 09:04:37;;;;;;;4.70;4.25;;;23.90;98.70;;;;;;5033503;28;20206;-56
2023/09/07 09:07:03;;;;;;;4.65;4.20;;;24.00;98.40;;;;;;5034163;28;20213;-57
2023/09/07 09:09:29;;;;;;;6.78;4.28;;;24.10;97.50;;;;;;5031254;28;20209;-54
2023/09/07 09:11:55;;;;;;;5.82;4.53;;;24.10;97.70;;;;;;5035131;28;20202;-57
2023/09/07 09:14:23;;;;;;;9.57;5.15;;;24.10;97.50;;;;;;5032952;28;20216;-55
2023/09/07 09:16:53;;;;;;;7.93;4.60;;;24.10;99.20;;;;;;5034930;28;20199;-55
2023/09/07 09:19:18;;;;;;;5.75;4.63;;;24.10;98.00;;;;;;5031127;28;20257;-56
2023/09/07 09:21:45;;;;;;;5.15;4.65;;;24.30;97.50;;;;;;5030872;28;20225;-54
2023/09/07 09:24:11;;;;;;;4.68;4.28;;;24.50;96.70;;;;;;5035595;28;20347;-57
2023/09/07 09:26:37;;;;;;;5.03;4.57;;;24.60;95.90;;;;;;5034428;28;21038;-60
2023/09/07 09:29:03;;;;;;;14.35;4.88;;;24.60;96.70;;;;;;5017751;28;20191;-57
2023/09/07 09:31:30;;;;;;;10.27;5.07;;;24.60;98.10;;;;;;5026694;28;20202;-57
2023/09/07 09:33:56;;;;;;;5.70;4.60;;;24.50;96.70;;;;;;5032078;28;20207;-57
2023/09/07 09:36:22;;;;;;;5.20;4.70;;;24.40;97.70;;;;;;5036951;28;20208;-58
2023/09/07 09:38:53;;;;;;;5.50;4.55;;;24.40;96.20;;;;;;5029971;28;20226;-55
2023/09/07 09:41:20;;;;;;;7.13;5.05;;;24.50;96.20;;;;;;5031072;28;20676;-56
2023/09/07 09:43:51;;;;;;;5.53;4.50;;;24.50;96.60;;;;;;5034762;28;20200;-56
2023/09/07 09:46:18;;;;;;;5.63;4.50;;;24.60;95.10;;;;;;5031131;28;20811;-57
2023/09/07 09:48:44;;;;;;;6.22;4.25;;;24.80;95.40;;;;;;5040305;28;20774;-56
2023/09/07 09:51:11;;;;;;;14.40;4.43;;;24.90;93.90;;;;;;5037088;28;23123;-53
2023/09/07 09:53:36;;;;;;;4.95;4.45;;;24.90;93.40;;;;;;5030905;28;20211;-54
2023/09/07 09:56:02;;;;;;;5.57;4.85;;;25.00;96.10;;;;;;5030539;28;20695;-54
2023/09/07 09:58:29;;;;;;;6.20;4.75;;;24.80;95.20;;;;;;5032726;28;20258;-54
2023/09/07 10:00:57;;;;;;;5.28;4.78;;;24.90;95.90;;;;;;5038765;28;20277;-57
2023/09/07 10:03:28;;;;;;;5.40;4.90;;;24.90;94.50;;;;;;5031800;28;20709;-62
2023/09/07 10:05:53;;;;;;;5.45;4.25;;;25.00;95.00;;;;;;5028820;28;20198;-62
2023/09/07 10:08:22;;;;;;;7.43;4.20;;;25.00;95.40;;;;;;5035606;28;20218;-63
2023/09/07 10:10:49;;;;;;;6.25;4.82;;;25.20;93.40;;;;;;5021523;28;20530;-55
2023/09/07 10:13:16;;;;;;;7.25;5.05;;;25.30;92.70;;;;;;5020038;28;20788;-62
2023/09/07 10:15:42;;;;;;;5.88;4.32;;;25.40;93.40;;;;;;5033577;28;20223;-56
2023/09/07 10:18:16;;;;;;;6.03;4.10;;;25.50;92.30;;;;;;5031310;28;20585;-54
2023/09/07 10:20:52;;;;;;;4.45;4.05;;;25.60;91.40;;;;;;5031069;28;20296;-55
2023/09/07 10:23:19;;;;;;;4.82;4.28;;;25.60;92.30;;;;;;5030456;28;20204;-56
2023/09/07 10:25:51;;;;;;;5.45;4.82;;;25.70;92.20;;;;;;5032722;28;20547;-56
2023/09/07 10:28:22;;;;;;;5.07;4.13;;;25.80;91.80;;;;;;5033489;28;20201;-54
2023/09/07 10:31:15;;;;;;;5.10;4.53;;;25.80;91.50;;;;;;5043646;28;20208;-56
2023/09/07 10:33:40;;;;;;;7.90;5.13;;;25.90;90.80;;;;;;5044569;28;20198;-56
2023/09/07 10:36:06;;;;;;;7.55;4.65;;;25.90;91.10;;;;;;5043420;28;20203;-60
2023/09/07 10:38:35;;;;;;;5.22;4.40;;;25.90;91.60;;;;;;5044310;28;20766;-57
2023/09/07 10:41:04;;;;;;;4.15;3.67;;;26.00;90.80;;;;;;5036985;28;20215;-62
2023/09/07 10:43:33;;;;;;;4.65;4.25;;;26.10;90.30;;;;;;5034671;28;20348;-64
2023/09/07 10:46:00;;;;;;;4.22;3.83;;;26.00;91.30;;;;;;5037066;28;20190;-60
2023/09/07 10:48:29;;;;;;;5.10;4.60;;;26.00;93.20;;;;;;5040299;28;20228;-58
2023/09/07 10:50:56;;;;;;;4.55;4.15;;;26.00;89.60;;;;;;5038374;28;20235;-58
2023/09/07 10:53:30;;;;;;;4.07;3.78;;;26.20;90.70;;;;;;5034793;28;20195;-58
2023/09/07 10:56:04;;;;;;;5.18;4.47;;;26.20;91.70;;;;;;5040249;28;20197;-58
2023/09/07 10:58:34;;;;;;;7.72;3.85;;;26.50;88.70;;;;;;5034825;28;21159;-58
2023/09/07 11:01:01;;;;;;;4.47;4.00;;;26.90;86.90;;;;;;5028811;28;20677;-60
2023/09/07 11:03:27;;;;;;;5.63;4.15;;;27.40;85.80;;;;;;5035592;28;20198;-59
2023/09/07 11:06:00;;;;;;;4.78;4.10;;;27.30;83.40;;;;;;5033447;28;20945;-57
2023/09/07 11:08:27;;;;;;;4.18;3.78;;;27.30;86.50;;;;;;5038611;28;20838;-57
2023/09/07 11:10:52;;;;;;;3.88;3.58;;;27.20;83.40;;;;;;5018904;28;20206;-56
2023/09/07 11:13:18;;;;;;;4.53;4.05;;;27.10;84.20;;;;;;5032103;28;21048;-56
2023/09/07 11:15:43;;;;;;;4.13;3.72;;;27.00;89.70;;;;;;5030985;28;20226;-56
2023/09/07 11:18:09;;;;;;;5.70;5.10;;;27.20;84.30;;;;;;5034353;28;20198;-56
2023/09/07 11:20:36;;;;;;;8.25;4.22;;;27.30;82.00;;;;;;5036894;28;20234;-55
2023/09/07 11:23:03;;;;;;;4.55;4.15;;;27.50;81.70;;;;;;5041031;28;20210;-56
2023/09/07 11:25:36;;;;;;;4.10;3.80;;;27.70;83.00;;;;;;5038771;28;20221;-56
2023/09/07 11:28:03;;;;;;;4.35;3.88;;;27.60;81.50;;;;;;5031064;28;20202;-56
2023/09/07 11:30:29;;;;;;;3.92;3.53;;;28.00;81.40;;;;;;5035579;28;20313;-57
2023/09/07 11:33:05;;;;;;;6.18;4.03;;;28.10;77.60;;;;;;5041387;28;20282;-58
2023/09/07 11:35:31;;;;;;;4.75;3.55;;;27.80;80.20;;;;;;5015663;28;20209;-56
2023/09/07 11:37:56;;;;;;;4.05;3.38;;;27.80;78.20;;;;;;5035340;28;20206;-56
2023/09/07 11:40:22;;;;;;;3.72;3.42;;;27.90;77.30;;;;;;5041610;28;20197;-55
2023/09/07 11:42:48;;;;;;;3.75;3.45;;;28.00;79.90;;;;;;5049561;28;20218;-55
2023/09/07 11:45:13;;;;;;;5.63;3.90;;;28.00;76.90;;;;;;5035413;28;20249;-55
2023/09/07 11:47:39;;;;;;;4.47;4.07;;;28.50;76.70;;;;;;5037412;28;20226;-55
2023/09/07 11:50:06;;;;;;;4.93;3.60;;;28.80;73.30;;;;;;5034168;28;20238;-55
2023/09/07 11:52:32;;;;;;;3.83;3.53;;;29.20;70.40;;;;;;5036444;28;20201;-54
2023/09/07 11:54:58;;;;;;;5.50;3.35;;;29.40;69.30;;;;;;5029695;28;20207;-55
2023/09/07 11:57:23;;;;;;;6.15;3.30;;;28.50;77.20;;;;;;5037007;28;20319;-56
2023/09/07 11:59:49;;;;;;;4.10;3.63;;;29.10;72.70;;;;;;5031080;28;20693;-56
2023/09/07 12:02:16;;;;;;;3.85;3.55;;;29.10;68.10;;;;;;5031247;28;20506;-55
2023/09/07 12:04:42;;;;;;;4.00;3.17;;;29.40;68.60;;;;;;5038179;28;20193;-55
2023/09/07 12:07:07;;;;;;;4.15;3.38;;;29.00;73.10;;;;;;5032734;28;20900;-55
2023/09/07 12:09:33;;;;;;;4.10;3.80;;;29.40;75.20;;;;;;5034816;28;20207;-55
2023/09/07 12:11:58;;;;;;;4.45;3.38;;;28.50;70.80;;;;;;5039160;28;20206;-56
2023/09/07 12:14:24;;;;;;;5.28;3.65;;;29.50;68.50;;;;;;5043398;28;20683;-56
2023/09/07 12:16:49;;;;;;;4.32;3.25;;;29.30;70.00;;;;;;5039870;28;20620;-56
2023/09/07 12:19:15;;;;;;;5.18;3.55;;;29.70;69.60;;;;;;5035330;28;20198;-55
2023/09/07 12:21:41;;;;;;;4.93;3.70;;;29.50;70.60;;;;;;5040796;28;20266;-55
2023/09/07 12:24:08;;;;;;;9.98;4.15;;;29.00;68.40;;;;;;5015764;28;20261;-55
2023/09/07 12:26:33;;;;;;;4.03;3.60;;;29.50;75.10;;;;;;5033362;28;20199;-55
2023/09/07 12:28:59;;;;;;;4.20;3.40;;;29.30;69.70;;;;;;5033621;28;21000;-56
2023/09/07 12:31:25;;;;;;;4.93;3.70;;;29.30;68.00;;;;;;5038422;28;20210;-57
2023/09/07 12:33:51;;;;;;;9.35;3.40;;;29.20;66.80;;;;;;5030421;28;20712;-62
2023/09/07 12:36:17;;;;;;;5.82;3.90;;;29.80;68.70;;;;;;5038460;28;20194;-58
2023/09/07 12:38:42;;;;;;;4.50;4.10;;;29.80;67.10;;;;;;5036927;28;20199;-59
2023/09/07 12:41:08;;;;;;;4.43;3.08;;;29.80;65.90;;;;;;5014571;28;20242;-63